Time;durP1;ratioP1;P1;durP2;ratioP2;P2;SDS_P1;SDS_P2;PMS_P1;PMS_P2;Temp;Humidity;BMP_temperature;BMP_pressure;BME280_temperature;BME280_humidity;BME280_pressure;Samples;Min_cycle;Max_cycle;Signal;HPM_P1;HPM_P2
2021/04/20 00:00:34;;;;;;;49.37;34.13;;;;;;;4.64;86.54;95683.28;5014615;28;20187;-73
2021/04/20 00:02:59;;;;;;;49.83;34.07;;;;;;;4.63;86.37;95687.59;4997006;28;20278;-73
2021/04/20 00:05:25;;;;;;;51.07;34.77;;;;;;;4.59;86.12;95675.06;4996717;28;20207;-72
2021/04/20 00:07:50;;;;;;;49.30;33.53;;;;;;;4.56;86.52;95676.09;4997069;28;20265;-73
2021/04/20 00:10:18;;;;;;;54.47;35.17;;;;;;;4.52;86.31;95679.84;4996902;28;20179;-72
2021/04/20 00:12:44;;;;;;;51.17;36.30;;;;;;;4.47;86.62;95669.03;4996600;28;20186;-73
2021/04/20 00:15:18;;;;;;;51.77;34.83;;;;;;;4.42;86.38;95679.66;4996514;28;20201;-72
2021/04/20 00:17:43;;;;;;;53.27;34.53;;;;;;;4.39;86.39;95673.88;4996823;28;20201;-72
2021/04/20 00:20:11;;;;;;;51.40;34.20;;;;;;;4.37;86.66;95670.59;4996601;28;20211;-72
2021/04/20 00:22:36;;;;;;;51.70;34.37;;;;;;;4.34;86.79;95663.94;4996563;28;20230;-72
2021/04/20 00:25:02;;;;;;;53.47;34.23;;;;;;;4.33;86.55;95666.59;5013738;28;20216;-72
2021/04/20 00:27:27;;;;;;;54.83;35.53;;;;;;;4.29;86.47;95658.28;4996417;28;20237;-72
2021/04/20 00:29:53;;;;;;;54.63;36.80;;;;;;;4.28;87.14;95663.53;4996665;28;20179;-72
2021/04/20 00:32:19;;;;;;;58.30;34.87;;;;;;;4.26;87.17;95664.47;4980269;28;20211;-72
2021/04/20 00:34:44;;;;;;;51.47;34.07;;;;;;;4.23;86.99;95662.09;4995982;28;20214;-72
2021/04/20 00:37:09;;;;;;;56.67;36.87;;;;;;;4.18;86.83;95656.47;5013947;28;20190;-73
2021/04/20 00:39:35;;;;;;;53.80;35.07;;;;;;;4.15;87.04;95655.84;5013837;28;20186;-72
2021/04/20 00:42:04;;;;;;;52.13;34.27;;;;;;;4.12;87.14;95651.75;4996166;28;20219;-71
2021/04/20 00:44:31;;;;;;;49.57;34.27;;;;;;;4.08;87.27;95646.94;4995538;28;20203;-72
2021/04/20 00:46:57;;;;;;;49.40;34.33;;;;;;;4.04;87.28;95653.19;4996246;28;20264;-72
2021/04/20 00:49:22;;;;;;;50.47;33.40;;;;;;;4.05;86.96;95652.25;4996114;28;20207;-72
2021/04/20 00:51:47;;;;;;;50.73;32.20;;;;;;;3.99;87.39;95648.38;4996022;28;20233;-72
2021/04/20 00:54:12;;;;;;;54.13;33.93;;;;;;;3.96;86.95;95648.56;5013478;28;20191;-72
2021/04/20 00:56:38;;;;;;;49.83;32.40;;;;;;;3.91;87.43;95641.19;5013414;28;20186;-73
2021/04/20 00:59:03;;;;;;;47.60;34.00;;;;;;;3.88;87.11;95638.81;4995981;28;20187;-72
2021/04/20 01:01:28;;;;;;;51.43;33.67;;;;;;;3.86;87.71;95642.41;4995922;28;20678;-72
2021/04/20 01:03:54;;;;;;;48.73;32.33;;;;;;;3.83;87.37;95640.88;4995852;28;20704;-72
2021/04/20 01:06:19;;;;;;;45.60;30.73;;;;;;;3.80;86.98;95640.25;4995189;28;20203;-72
2021/04/20 01:08:44;;;;;;;51.03;32.43;;;;;;;3.80;87.64;95641.09;4995756;28;20194;-72
2021/04/20 01:11:10;;;;;;;47.13;31.93;;;;;;;3.79;87.17;95631.72;4995747;28;20214;-73
2021/04/20 01:13:35;;;;;;;47.87;32.13;;;;;;;3.80;87.77;95635.13;4995574;28;20245;-72
2021/04/20 01:16:01;;;;;;;52.10;33.53;;;;;;;3.80;87.31;95630.84;4995381;28;20256;-73
2021/04/20 01:18:31;;;;;;;49.97;33.23;;;;;;;3.80;87.79;95635.97;5028300;28;20202;-72
2021/04/20 01:21:04;;;;;;;50.57;33.17;;;;;;;3.82;87.59;95633.28;4995443;28;20236;-72
2021/04/20 01:23:30;;;;;;;52.33;32.33;;;;;;;3.85;87.55;95633.91;4995631;28;20171;-72
2021/04/20 01:25:56;;;;;;;54.70;33.93;;;;;;;3.85;87.86;95639.03;5011413;28;20214;-72
2021/04/20 01:28:22;;;;;;;54.97;34.43;;;;;;;3.86;87.85;95638.09;4995327;28;20195;-73
2021/04/20 01:30:48;;;;;;;49.57;33.07;;;;;;;3.89;87.68;95637.09;5028102;28;20175;-72
2021/04/20 01:33:13;;;;;;;52.57;34.37;;;;;;;3.88;87.56;95638.81;4995346;28;20229;-73
2021/04/20 01:35:39;;;;;;;57.33;37.00;;;;;;;3.91;88.01;95632.66;4994767;28;20199;-72
2021/04/20 01:38:05;;;;;;;56.80;37.27;;;;;;;3.92;87.81;95636.88;4995220;28;20224;-72
2021/04/20 01:40:31;;;;;;;63.13;38.63;;;;;;;3.96;88.28;95638.28;4995270;28;20178;-72
2021/04/20 01:42:58;;;;;;;54.70;36.87;;;;;;;3.95;87.78;95639.22;4995335;28;20544;-73
2021/04/20 01:45:24;;;;;;;50.43;33.90;;;;;;;3.92;87.70;95631.72;5011119;28;20203;-72
2021/04/20 01:47:50;;;;;;;54.93;34.70;;;;;;;3.89;87.60;95634.53;4994918;28;20178;-72
2021/04/20 01:50:15;;;;;;;53.07;35.20;;;;;;;3.85;87.60;95631.31;4995199;28;20175;-72
2021/04/20 01:52:43;;;;;;;52.90;34.70;;;;;;;3.82;87.42;95643.56;4995013;28;20179;-72
2021/04/20 01:55:09;;;;;;;54.27;35.17;;;;;;;3.75;87.56;95637.19;5011453;28;20217;-72
2021/04/20 01:57:35;;;;;;;50.57;32.83;;;;;;;3.69;87.79;95634.09;4994795;28;20658;-72
2021/04/20 02:00:01;;;;;;;53.63;35.87;;;;;;;3.73;88.08;95641.63;4994911;28;20213;-72
2021/04/20 02:02:26;;;;;;;58.10;35.67;;;;;;;3.76;88.01;95636.28;4994665;28;20226;-73
2021/04/20 02:04:51;;;;;;;62.70;37.77;;;;;;;3.74;87.65;95633.81;4994524;28;20298;-73
2021/04/20 02:07:17;;;;;;;52.00;34.73;;;;;;;3.73;87.71;95632.16;4994662;28;20182;-73
2021/04/20 02:09:42;;;;;;;56.43;35.80;;;;;;;3.74;87.70;95638.13;5012250;28;20179;-72
2021/04/20 02:12:08;;;;;;;51.93;33.70;;;;;;;3.70;87.77;95635.75;5012293;28;20584;-72
2021/04/20 02:14:34;;;;;;;55.13;33.43;;;;;;;3.68;87.99;95637.59;4994060;28;20207;-72
2021/04/20 02:17:00;;;;;;;57.47;34.60;;;;;;;3.72;87.77;95638.22;5011019;28;20551;-73
2021/04/20 02:19:26;;;;;;;53.03;34.37;;;;;;;3.70;87.76;95634.94;5012274;28;20191;-72
2021/04/20 02:21:53;;;;;;;56.03;34.33;;;;;;;3.70;87.78;95629.78;4994931;28;20206;-72
2021/04/20 02:24:18;;;;;;;51.73;33.73;;;;;;;3.74;87.90;95630.41;4994554;28;20179;-72
2021/04/20 02:26:43;;;;;;;52.13;33.33;;;;;;;3.73;87.81;95629.59;4994408;28;20179;-72
2021/04/20 02:29:10;;;;;;;53.77;33.90;;;;;;;3.73;87.42;95631.34;4994322;28;20304;-72
2021/04/20 02:31:40;;;;;;;51.03;33.93;;;;;;;3.75;88.10;95626.91;4994380;28;20207;-72
2021/04/20 02:34:07;;;;;;;50.07;32.57;;;;;;;3.74;87.92;95627.84;5027084;28;20689;-72
2021/04/20 02:36:37;;;;;;;51.00;33.27;;;;;;;3.77;87.94;95627.63;4994382;28;20206;-73
2021/04/20 02:39:04;;;;;;;48.67;31.80;;;;;;;3.89;87.64;95630.22;4994303;28;20789;-72
2021/04/20 02:41:29;;;;;;;49.73;33.13;;;;;;;3.85;87.80;95625.38;5010490;28;20610;-72
2021/04/20 02:43:54;;;;;;;50.80;32.00;;;;;;;3.84;87.88;95631.44;4994442;28;20191;-73
2021/04/20 02:46:20;;;;;;;53.80;33.40;;;;;;;3.86;87.66;95627.00;4993684;28;20285;-72
2021/04/20 02:48:45;;;;;;;50.17;31.70;;;;;;;3.85;88.19;95627.94;4994394;28;20214;-72
2021/04/20 02:51:12;;;;;;;47.47;32.00;;;;;;;3.83;88.00;95622.09;4994215;28;20179;-72
2021/04/20 02:53:40;;;;;;;49.93;32.53;;;;;;;3.81;88.11;95626.50;4994217;28;20611;-72
2021/04/20 02:56:06;;;;;;;46.97;30.47;;;;;;;3.78;87.71;95622.38;5026732;28;20242;-72
2021/04/20 02:58:32;;;;;;;46.43;29.67;;;;;;;3.74;87.92;95620.97;4994301;28;20210;-72
2021/04/20 03:01:06;;;;;;;47.13;31.37;;;;;;;3.70;87.67;95622.91;4993987;28;20182;-71
2021/04/20 03:03:36;;;;;;;50.30;31.33;;;;;;;3.64;87.68;95617.38;5010486;28;20187;-72
2021/04/20 03:06:02;;;;;;;46.00;30.23;;;;;;;3.59;87.97;95614.28;5027581;28;20197;-72
2021/04/20 03:08:29;;;;;;;44.33;28.53;;;;;;;3.55;87.95;95613.69;5030695;28;20248;-72
2021/04/20 03:10:58;;;;;;;44.53;28.97;;;;;;;3.50;87.44;95618.28;5030893;28;20186;-72
2021/04/20 03:13:23;;;;;;;46.87;30.30;;;;;;;3.44;88.21;95613.56;5014715;28;20547;-73
2021/04/20 03:15:48;;;;;;;46.73;29.97;;;;;;;3.35;87.79;95607.28;4997616;28;20289;-72
2021/04/20 03:18:14;;;;;;;49.33;29.93;;;;;;;3.30;87.70;95611.13;4998009;28;20183;-72
2021/04/20 03:20:39;;;;;;;43.90;27.40;;;;;;;3.24;87.96;95611.50;4997856;28;20471;-73
2021/04/20 03:23:04;;;;;;;38.73;26.87;;;;;;;3.17;87.96;95611.09;4997661;28;20581;-71
2021/04/20 03:25:32;;;;;;;39.17;26.70;;;;;;;3.12;88.10;95603.69;4997546;28;20705;-72
2021/04/20 03:27:58;;;;;;;45.47;29.60;;;;;;;3.08;87.76;95607.38;5015140;28;20201;-72
2021/04/20 03:30:29;;;;;;;42.17;28.27;;;;;;;3.05;88.04;95599.91;5030430;28;20228;-72
2021/04/20 03:33:13;;;;;;;41.00;27.50;;;;;;;2.98;87.68;95598.66;4997533;28;20644;-72
2021/04/20 03:35:41;;;;;;;38.77;25.50;;;;;;;2.92;87.93;95601.63;5014618;28;20261;-71
2021/04/20 03:38:16;;;;;;;39.27;26.67;;;;;;;2.83;87.44;95597.91;4997517;28;20262;-71
2021/04/20 03:40:47;;;;;;;34.30;22.77;;;;;;;2.77;87.72;95597.50;4997528;28;20200;-71
2021/04/20 03:43:15;;;;;;;39.37;26.10;;;;;;;2.68;87.58;95592.94;4997414;28;20185;-72
2021/04/20 03:46:05;;;;;;;35.43;25.17;;;;;;;2.62;87.76;95601.03;5012862;28;20209;-72
2021/04/20 03:48:40;;;;;;;39.07;25.23;;;;;;;2.59;87.86;95598.66;5030147;28;20541;-72
2021/04/20 03:51:09;;;;;;;36.63;26.03;;;;;;;2.52;87.37;95599.03;4997238;28;20182;-72
2021/04/20 03:53:35;;;;;;;40.10;26.03;;;;;;;2.50;87.49;95593.22;4997238;28;20209;-72
2021/04/20 03:56:01;;;;;;;36.50;24.87;;;;;;;2.46;87.57;95594.31;4997078;28;20200;-72
2021/04/20 03:58:28;;;;;;;39.33;27.50;;;;;;;2.44;87.68;95596.16;5014867;28;20179;-71
2021/04/20 04:00:58;;;;;;;36.27;25.00;;;;;;;2.40;87.40;95592.16;4996960;28;20225;-72
2021/04/20 04:03:27;;;;;;;38.13;24.93;;;;;;;2.33;87.56;95593.44;4997282;28;20183;-72
2021/04/20 04:05:53;;;;;;;39.93;26.27;;;;;;;2.32;87.62;95596.94;4996746;28;20197;-73
2021/04/20 04:08:18;;;;;;;37.07;25.20;;;;;;;2.30;87.22;95598.78;4997062;28;20619;-72
2021/04/20 04:10:44;;;;;;;36.93;25.47;;;;;;;2.26;86.99;95593.00;4997061;28;20199;-72
2021/04/20 04:13:11;;;;;;;42.53;26.97;;;;;;;2.26;87.18;95594.75;4996985;28;20183;-72
2021/04/20 04:15:37;;;;;;;37.83;25.53;;;;;;;2.22;87.20;95596.69;5013135;28;20199;-72
2021/04/20 04:18:07;;;;;;;39.10;26.20;;;;;;;2.20;87.49;95598.50;4995894;28;20186;-72
2021/04/20 04:20:33;;;;;;;42.57;26.63;;;;;;;2.18;87.29;95591.84;5029953;28;20574;-72
2021/04/20 04:23:23;;;;;;;38.67;26.47;;;;;;;2.18;87.44;95595.22;4996480;28;20208;-72
2021/04/20 04:25:56;;;;;;;42.77;26.13;;;;;;;2.21;87.25;95589.91;5012550;28;20199;-72
2021/04/20 04:28:24;;;;;;;44.60;26.80;;;;;;;2.16;86.97;95591.94;4996491;28;20279;-72
2021/04/20 04:30:50;;;;;;;43.13;29.03;;;;;;;2.15;87.07;95592.03;4996542;28;20234;-72
2021/04/20 04:33:15;;;;;;;41.40;28.00;;;;;;;2.15;87.44;95597.16;5014028;28;20187;-72
2021/04/20 04:35:43;;;;;;;44.13;28.37;;;;;;;2.15;86.99;95595.41;4996046;28;20623;-72
2021/04/20 04:38:09;;;;;;;44.93;29.80;;;;;;;2.11;87.02;95591.38;4996481;28;20180;-72
2021/04/20 04:40:34;;;;;;;42.20;28.53;;;;;;;2.13;86.98;95601.56;5029182;28;20182;-72
2021/04/20 04:43:00;;;;;;;43.60;28.40;;;;;;;2.13;86.89;95594.69;4996264;28;20207;-72
2021/04/20 04:45:26;;;;;;;39.17;26.50;;;;;;;2.17;86.99;95595.31;4995786;28;20200;-72
2021/04/20 04:47:52;;;;;;;39.30;25.40;;;;;;;2.24;86.83;95594.03;4995995;28;20179;-72
2021/04/20 04:50:17;;;;;;;37.10;24.67;;;;;;;2.27;86.97;95588.69;4996206;28;20183;-72
2021/04/20 04:52:45;;;;;;;36.70;23.50;;;;;;;2.38;86.85;95599.09;4996275;28;20262;-72
2021/04/20 04:55:10;;;;;;;37.20;24.33;;;;;;;2.48;86.60;95599.34;5011745;28;20206;-73
2021/04/20 04:57:36;;;;;;;40.43;25.57;;;;;;;2.92;86.37;95599.06;4996049;28;20185;-72
2021/04/20 05:00:06;;;;;;;37.53;24.23;;;;;;;3.73;84.64;95600.53;4976105;28;20226;-72
2021/04/20 05:02:34;;;;;;;34.07;22.03;;;;;;;4.38;81.43;95605.41;4975286;28;20690;-72
2021/04/20 05:05:05;;;;;;;27.37;19.33;;;;;;;4.70;78.38;95606.50;4965669;28;20354;-72
2021/04/20 05:07:30;;;;;;;25.30;18.33;;;;;;;4.81;77.51;95614.25;4998514;28;20207;-72
2021/04/20 05:10:00;;;;;;;24.73;18.23;;;;;;;4.59;76.65;95610.75;4975489;28;20272;-73
2021/04/20 05:12:25;;;;;;;29.40;18.13;;;;;;;4.33;78.22;95615.19;4971883;28;20181;-72
2021/04/20 05:14:50;;;;;;;26.03;18.87;;;;;;;4.10;78.20;95609.91;4983249;28;20769;-72
2021/04/20 05:17:20;;;;;;;24.27;18.37;;;;;;;3.94;79.71;95619.59;4989875;28;20183;-72
2021/04/20 05:19:46;;;;;;;26.03;19.93;;;;;;;3.87;80.03;95616.63;4975160;28;20192;-73
2021/04/20 05:22:11;;;;;;;29.30;20.73;;;;;;;3.98;80.24;95619.28;4975420;28;20210;-73
2021/04/20 05:24:37;;;;;;;26.60;20.57;;;;;;;3.92;80.39;95618.88;4992614;28;20204;-72
2021/04/20 05:27:04;;;;;;;29.53;21.60;;;;;;;4.00;80.51;95613.22;4968956;28;20185;-72
2021/04/20 05:29:30;;;;;;;30.00;20.67;;;;;;;3.93;80.81;95612.81;4969433;28;20564;-72
2021/04/20 05:31:55;;;;;;;30.37;22.10;;;;;;;4.03;80.87;95611.25;4968445;28;20246;-72
2021/04/20 05:34:21;;;;;;;31.33;21.47;;;;;;;4.02;81.20;95612.19;4975027;28;20230;-73
2021/04/20 05:36:47;;;;;;;30.07;21.50;;;;;;;4.00;81.71;95619.19;4974442;28;20190;-73
2021/04/20 05:39:14;;;;;;;31.10;20.67;;;;;;;4.00;82.44;95616.63;4974861;28;20207;-73
2021/04/20 05:41:40;;;;;;;35.80;23.90;;;;;;;4.12;81.73;95610.63;4975004;28;20199;-74
2021/04/20 05:44:08;;;;;;;30.43;22.93;;;;;;;4.19;81.84;95601.56;4974651;28;20197;-74
2021/04/20 05:46:37;;;;;;;48.27;29.13;;;;;;;4.32;82.01;95606.66;4973529;28;20192;-73
2021/04/20 05:49:04;;;;;;;43.07;29.20;;;;;;;4.42;81.94;95612.81;4968307;28;20551;-74
2021/04/20 05:51:30;;;;;;;36.60;23.40;;;;;;;4.62;81.11;95613.94;4972578;28;20687;-73
2021/04/20 05:53:55;;;;;;;30.10;20.90;;;;;;;4.71;80.69;95612.47;4971453;28;20239;-73
2021/04/20 05:56:22;;;;;;;29.57;21.00;;;;;;;4.79;81.31;95613.56;4971204;28;20251;-72
2021/04/20 05:58:55;;;;;;;29.20;21.33;;;;;;;4.97;80.68;95616.56;4974667;28;20184;-73
2021/04/20 06:01:23;;;;;;;27.97;19.67;;;;;;;5.13;80.82;95618.84;4974484;28;20195;-74
2021/04/20 06:03:48;;;;;;;30.27;21.40;;;;;;;5.27;80.49;95623.78;4974568;28;20187;-74
2021/04/20 06:06:17;;;;;;;32.13;21.77;;;;;;;5.32;79.98;95620.88;4967816;28;20840;-74
2021/04/20 06:08:43;;;;;;;32.10;22.13;;;;;;;5.53;80.19;95629.56;4973820;28;20648;-75
2021/04/20 06:11:10;;;;;;;32.20;22.03;;;;;;;5.64;80.10;95623.59;4958436;28;20317;-75
2021/04/20 06:13:35;;;;;;;34.73;24.20;;;;;;;5.74;79.97;95629.69;4974317;28;20235;-74
2021/04/20 06:16:00;;;;;;;35.50;23.97;;;;;;;5.88;79.82;95628.66;4967962;28;20665;-73
2021/04/20 06:18:26;;;;;;;32.77;23.10;;;;;;;6.05;79.56;95620.47;4988588;28;20183;-72
2021/04/20 06:20:54;;;;;;;32.50;23.60;;;;;;;6.14;79.50;95632.66;4969799;28;20194;-73
2021/04/20 06:23:19;;;;;;;30.97;22.03;;;;;;;6.24;79.43;95628.44;4966238;28;20184;-73
2021/04/20 06:25:45;;;;;;;30.50;21.90;;;;;;;6.37;78.84;95628.31;4956060;28;20209;-72
2021/04/20 06:28:11;;;;;;;32.33;22.60;;;;;;;6.47;78.51;95629.22;4965585;28;20187;-73
2021/04/20 06:30:37;;;;;;;31.03;22.50;;;;;;;6.63;77.89;95634.00;4965531;28;20184;-74
2021/04/20 06:33:05;;;;;;;32.30;22.80;;;;;;;6.82;76.44;95639.34;4979038;28;20191;-73
2021/04/20 06:35:30;;;;;;;31.23;21.90;;;;;;;6.86;76.26;95639.09;4964621;28;20338;-72
2021/04/20 06:37:55;;;;;;;31.97;22.17;;;;;;;6.75;76.16;95629.63;5001706;28;20283;-71
2021/04/20 06:40:29;;;;;;;31.47;21.73;;;;;;;6.85;76.26;95633.09;4959930;28;20664;-73
2021/04/20 06:42:58;;;;;;;31.57;21.60;;;;;;;6.98;75.03;95644.09;4988216;28;20234;-73
2021/04/20 06:45:28;;;;;;;29.40;20.30;;;;;;;7.14;75.45;95637.69;4965689;28;20215;-74
2021/04/20 06:47:58;;;;;;;26.13;20.37;;;;;;;7.31;74.99;95639.72;4964861;28;20191;-73
2021/04/20 06:50:24;;;;;;;30.70;21.40;;;;;;;7.64;73.55;95631.78;4969346;28;20233;-73
2021/04/20 06:53:09;;;;;;;29.93;20.70;;;;;;;8.20;72.41;95639.09;4961001;28;20271;-71
2021/04/20 06:56:04;;;;;;;24.90;18.60;;;;;;;8.45;68.73;95639.63;4964873;28;20199;-72
2021/04/20 06:58:51;;;;;;;25.10;19.43;;;;;;;8.62;68.69;95633.81;4962916;28;20246;-72
2021/04/20 07:01:21;;;;;;;26.40;17.30;;;;;;;8.58;67.86;95636.81;4990709;28;20203;-72
2021/04/20 07:04:16;;;;;;;24.93;19.23;;;;;;;8.66;68.01;95639.56;4963777;28;20184;-72
2021/04/20 07:06:49;;;;;;;24.83;17.33;;;;;;;8.80;65.81;95628.78;4969486;28;20199;-73
2021/04/20 07:09:26;;;;;;;25.23;18.70;;;;;;;8.51;66.60;95633.94;4973838;28;20242;-74
2021/04/20 07:11:52;;;;;;;23.37;17.70;;;;;;;8.29;66.68;95629.75;4957827;28;20223;-74
2021/04/20 07:14:30;;;;;;;25.03;17.37;;;;;;;8.43;67.14;95634.59;4973838;28;20275;-72
2021/04/20 07:17:18;;;;;;;24.77;18.47;;;;;;;8.45;67.28;95630.09;4970886;28;20184;-73
2021/04/20 07:20:03;;;;;;;21.13;16.20;;;;;;;8.14;67.40;95634.47;4966802;28;20195;-72
2021/04/20 07:22:47;;;;;;;20.23;15.20;;;;;;;8.07;69.06;95640.28;4984301;28;20254;-73
2021/04/20 07:25:50;;;;;;;23.47;15.33;;;;;;;8.06;70.58;95636.88;4990731;28;20212;-73
2021/04/20 07:28:29;;;;;;;18.17;13.93;;;;;;;8.05;70.82;95645.59;4986951;28;20198;-73
2021/04/20 07:31:20;;;;;;;18.73;15.00;;;;;;;7.62;72.66;95648.38;4973233;28;20188;-73
2021/04/20 07:34:18;;;;;;;23.83;16.87;;;;;;;7.59;71.97;95646.84;4989883;28;20188;-73
2021/04/20 07:36:57;;;;;;;23.57;16.27;;;;;;;7.82;72.37;95644.94;4901939;29;20747;-72
2021/04/20 07:39:23;;;;;;;25.87;16.90;;;;;;;7.82;72.17;95646.69;4941481;29;20269;-72
2021/04/20 07:41:52;;;;;;;21.47;15.97;;;;;;;7.82;72.84;95641.53;4930486;29;20214;-74
2021/04/20 07:44:24;;;;;;;20.90;15.90;;;;;;;8.29;71.83;95649.63;4920394;29;20270;-74
2021/04/20 07:46:52;;;;;;;23.30;16.50;;;;;;;8.23;70.64;95654.38;4926776;29;20205;-73
2021/04/20 07:49:23;;;;;;;21.13;16.43;;;;;;;8.63;69.89;95650.97;4899608;29;20187;-74
2021/04/20 07:51:54;;;;;;;22.33;17.03;;;;;;;8.66;68.50;95655.09;4942306;29;20186;-74
2021/04/20 07:54:50;;;;;;;18.67;15.33;;;;;;;8.56;65.75;95639.50;4928607;29;20212;-74
2021/04/20 07:57:39;;;;;;;20.20;14.50;;;;;;;8.71;62.82;95638.19;4924566;29;20188;-74
2021/04/20 08:00:10;;;;;;;19.93;15.40;;;;;;;8.73;63.22;95635.47;4923590;29;20686;-74
2021/04/20 08:03:06;;;;;;;16.67;12.23;;;;;;;8.54;58.81;95630.25;4912047;29;20237;-73
2021/04/20 08:05:42;;;;;;;15.47;12.87;;;;;;;8.61;58.01;95627.00;4925501;29;20209;-73
2021/04/20 08:08:44;;;;;;;14.80;13.03;;;;;;;8.56;57.59;95623.97;4909771;29;20193;-72
2021/04/20 08:11:19;;;;;;;14.77;13.00;;;;;;;8.89;58.90;95632.34;4913696;29;20198;-74
2021/04/20 08:14:02;;;;;;;17.00;14.07;;;;;;;8.93;57.97;95631.97;4972915;28;20188;-72
2021/04/20 08:16:38;;;;;;;17.60;14.63;;;;;;;9.07;60.12;95625.53;4970153;28;20196;-74
2021/04/20 08:19:09;;;;;;;15.80;13.47;;;;;;;9.13;59.17;95626.78;4970077;28;20184;-74
2021/04/20 08:21:37;;;;;;;17.67;14.07;;;;;;;9.31;61.30;95636.31;4991856;28;20196;-74
2021/04/20 08:24:05;;;;;;;19.13;14.63;;;;;;;9.61;60.22;95634.50;4975778;28;20187;-74
2021/04/20 08:26:36;;;;;;;18.50;14.87;;;;;;;9.65;59.46;95628.09;4991439;28;20652;-76
2021/04/20 08:29:04;;;;;;;19.60;15.67;;;;;;;9.89;61.29;95627.59;4976568;28;20203;-74
2021/04/20 08:31:37;;;;;;;20.27;15.60;;;;;;;9.79;59.56;95630.22;4996446;28;20254;-73
2021/04/20 08:34:27;;;;;;;25.63;17.57;;;;;;;9.27;60.18;95628.94;4976243;28;20203;-74
2021/04/20 08:37:06;;;;;;;20.00;15.43;;;;;;;9.24;60.35;95630.03;4976384;28;20267;-75
2021/04/20 08:39:56;;;;;;;19.17;15.43;;;;;;;9.32;60.11;95629.34;4993446;28;20203;-74
2021/04/20 08:42:49;;;;;;;16.93;14.37;;;;;;;9.92;59.61;95627.34;4990231;28;20203;-74
2021/04/20 08:45:26;;;;;;;18.83;15.33;;;;;;;9.70;60.13;95636.25;4991697;28;20203;-74
2021/04/20 08:48:03;;;;;;;19.77;15.17;;;;;;;10.07;58.43;95636.31;4976030;28;20545;-74
2021/04/20 08:50:32;;;;;;;17.77;14.07;;;;;;;9.59;58.01;95634.63;4976111;28;20184;-75
2021/04/20 08:53:20;;;;;;;17.30;14.90;;;;;;;9.86;57.84;95633.88;4972382;28;20662;-76
2021/04/20 08:56:03;;;;;;;17.80;14.30;;;;;;;9.64;58.34;95636.81;4988056;28;20211;-76
2021/04/20 08:58:28;;;;;;;17.23;13.40;;;;;;;9.64;57.70;95632.47;4992096;28;20183;-76
2021/04/20 09:01:05;;;;;;;17.37;13.50;;;;;;;10.17;56.79;95633.66;4991047;28;20234;-76
2021/04/20 09:03:45;;;;;;;15.93;13.77;;;;;;;10.46;56.60;95634.38;4996716;28;20192;-75
2021/04/20 09:06:22;;;;;;;16.67;13.60;;;;;;;10.27;57.15;95634.47;4984450;28;20223;-75
2021/04/20 09:08:50;;;;;;;15.40;13.30;;;;;;;10.24;57.79;95634.72;4991841;28;20186;-75
2021/04/20 09:11:26;;;;;;;16.63;13.87;;;;;;;10.53;55.79;95631.22;4975582;28;20191;-74
2021/04/20 09:14:34;;;;;;;16.27;13.40;;;;;;;10.94;55.69;95629.84;4965859;28;20235;-74
2021/04/20 09:17:02;;;;;;;15.33;12.03;;;;;;;11.13;55.98;95631.47;4939574;28;20192;-74
2021/04/20 09:19:34;;;;;;;13.37;11.97;;;;;;;10.93;56.19;95625.59;4953098;28;20199;-75
2021/04/20 09:22:49;;;;;;;11.60;9.43;;;;;;;10.68;53.47;95621.94;4998467;28;20227;-76
2021/04/20 09:25:22;;;;;;;11.67;9.50;;;;;;;10.94;51.48;95622.03;4960036;28;20719;-75
2021/04/20 09:28:07;;;;;;;14.27;10.73;;;;;;;11.12;53.88;95624.63;4965748;28;20600;-75
2021/04/20 09:30:36;;;;;;;13.03;10.77;;;;;;;10.98;53.36;95615.59;4965484;28;20182;-75
2021/04/20 09:33:06;;;;;;;14.20;12.00;;;;;;;10.39;54.26;95619.50;4954681;28;20188;-76
2021/04/20 09:35:32;;;;;;;15.17;12.83;;;;;;;10.82;54.17;95623.22;5000735;28;20286;-74
2021/04/20 09:37:58;;;;;;;14.17;11.73;;;;;;;10.62;56.19;95622.53;4962529;28;20673;-73
2021/04/20 09:40:24;;;;;;;13.83;11.70;;;;;;;10.84;55.01;95624.72;4970853;28;20269;-73
2021/04/20 09:43:10;;;;;;;13.70;10.87;;;;;;;11.31;52.52;95622.72;4974717;28;20212;-73
2021/04/20 09:45:45;;;;;;;13.33;11.07;;;;;;;11.32;53.69;95616.56;4985003;28;20200;-74
2021/04/20 09:48:31;;;;;;;14.90;11.87;;;;;;;11.52;54.69;95625.00;4959218;28;20191;-73
2021/04/20 09:51:07;;;;;;;14.73;12.37;;;;;;;11.40;55.08;95623.59;4986597;28;20175;-74
2021/04/20 09:53:55;;;;;;;15.00;13.37;;;;;;;11.49;55.37;95612.28;4974093;28;20180;-75
2021/04/20 09:56:44;;;;;;;14.10;11.70;;;;;;;11.51;54.36;95620.75;4973050;28;20215;-74
2021/04/20 09:59:26;;;;;;;13.37;11.43;;;;;;;11.83;53.57;95619.34;4996461;28;20239;-73
2021/04/20 10:02:03;;;;;;;12.60;10.67;;;;;;;12.24;52.54;95622.19;4967264;28;20223;-75
2021/04/20 10:04:58;;;;;;;14.57;12.50;;;;;;;11.77;51.47;95620.78;4982705;28;20597;-74
2021/04/20 10:07:36;;;;;;;14.20;11.90;;;;;;;11.44;52.94;95618.91;4962206;28;20945;-73
2021/04/20 10:10:13;;;;;;;14.83;10.97;;;;;;;11.54;53.18;95620.44;4973599;28;20180;-73
2021/04/20 10:13:00;;;;;;;13.80;11.93;;;;;;;11.31;53.19;95614.09;4969283;28;20250;-73
2021/04/20 10:15:39;;;;;;;12.27;10.97;;;;;;;11.31;51.97;95614.09;4969349;28;20199;-75
2021/04/20 10:18:12;;;;;;;12.00;10.47;;;;;;;11.30;51.06;95612.44;4962409;28;20183;-75
2021/04/20 10:20:48;;;;;;;14.13;10.07;;;;;;;11.10;50.32;95605.78;4963977;28;20188;-74
2021/04/20 10:23:45;;;;;;;10.83;9.00;;;;;;;11.42;51.20;95607.84;4969055;28;20204;-74
2021/04/20 10:26:17;;;;;;;11.43;9.70;;;;;;;11.51;51.85;95606.94;4980146;28;20200;-75
2021/04/20 10:28:46;;;;;;;13.53;11.00;;;;;;;11.90;49.70;95612.56;4969096;28;20204;-75
2021/04/20 10:31:18;;;;;;;10.93;9.63;;;;;;;12.05;49.95;95605.84;4969707;28;20259;-75
2021/04/20 10:33:47;;;;;;;10.70;9.63;;;;;;;12.43;52.23;95603.72;4963592;28;20203;-75
2021/04/20 10:36:13;;;;;;;11.17;9.97;;;;;;;12.58;49.90;95596.94;4965397;28;20197;-75
2021/04/20 10:38:38;;;;;;;11.50;10.30;;;;;;;12.93;50.43;95589.84;4967263;28;20180;-74
2021/04/20 10:41:21;;;;;;;11.10;9.70;;;;;;;12.98;49.33;95590.16;4948013;28;20242;-74
2021/04/20 10:43:47;;;;;;;11.03;9.10;;;;;;;13.27;48.17;95592.34;4964656;28;20214;-74
2021/04/20 10:46:12;;;;;;;10.23;9.07;;;;;;;13.63;47.83;95595.44;4975516;28;20585;-74
2021/04/20 10:48:38;;;;;;;13.27;10.37;;;;;;;13.52;46.17;95587.94;4961803;28;20184;-74
2021/04/20 10:51:05;;;;;;;9.13;8.20;;;;;;;13.80;47.03;95583.97;4969869;28;20183;-74
2021/04/20 10:53:34;;;;;;;9.63;8.53;;;;;;;13.86;46.64;95587.69;4974613;28;20532;-74
2021/04/20 10:56:16;;;;;;;9.03;7.80;;;;;;;13.25;44.59;95589.91;4973865;28;20286;-75
2021/04/20 10:58:44;;;;;;;10.23;9.00;;;;;;;13.03;46.45;95587.91;4985469;28;20546;-76
2021/04/20 11:01:18;;;;;;;10.97;8.53;;;;;;;13.23;46.45;95583.22;4965914;28;20196;-74
2021/04/20 11:03:45;;;;;;;10.87;9.50;;;;;;;13.35;46.04;95584.53;4972720;28;20180;-76
2021/04/20 11:06:48;;;;;;;11.63;9.13;;;;;;;13.63;45.77;95587.59;4973829;28;20255;-76
2021/04/20 11:09:14;;;;;;;9.17;7.93;;;;;;;13.57;45.36;95575.19;4990278;28;20538;-74
2021/04/20 11:11:39;;;;;;;10.07;8.80;;;;;;;13.34;45.68;95564.66;4974070;28;20176;-74
2021/04/20 11:14:04;;;;;;;10.17;9.13;;;;;;;13.55;45.56;95567.53;4985573;28;20267;-74
2021/04/20 11:16:38;;;;;;;13.17;9.80;;;;;;;13.62;44.37;95572.94;4988172;28;20200;-75
2021/04/20 11:19:07;;;;;;;12.43;11.13;;;;;;;13.42;45.00;95571.63;4967814;28;20668;-76
2021/04/20 11:21:35;;;;;;;9.83;8.67;;;;;;;13.60;45.22;95569.66;4971815;28;20207;-76
2021/04/20 11:24:10;;;;;;;10.80;9.23;;;;;;;13.75;43.60;95568.00;4959267;28;20231;-75
2021/04/20 11:26:38;;;;;;;11.27;10.17;;;;;;;13.52;44.42;95567.06;4986781;28;20187;-75
2021/04/20 11:29:13;;;;;;;12.37;9.07;;;;;;;13.53;43.95;95568.69;4968627;28;20193;-76
2021/04/20 11:31:46;;;;;;;12.30;11.00;;;;;;;13.96;45.14;95570.09;4959403;28;20671;-76
2021/04/20 11:34:19;;;;;;;13.53;10.07;;;;;;;14.33;44.67;95558.19;4988729;28;20598;-76
2021/04/20 11:36:50;;;;;;;12.97;10.03;;;;;;;13.42;44.89;95559.41;4961464;28;20533;-75
2021/04/20 11:39:21;;;;;;;11.70;9.43;;;;;;;13.39;45.49;95562.34;4976887;28;20188;-75
2021/04/20 11:42:02;;;;;;;10.57;8.70;;;;;;;13.94;44.42;95561.59;4996476;28;20207;-76